• Join FlightAware (Why Join?)
  • Login
  • US Flag 
12:48PM EDT


 

Airport Tracker/Info


-or-


 

Live Flight TrackerFlight Track Log ✈ N534QS ✈ 15-May-2013 ✈ KTTN - KHPN

Flight Track Log - Related Links

Times and Time Zones

All times are in EDT time to prevent confusion due to time zone crossing. See the N534QS flight status page for this flight to view local times or setup timezone preferences in your user account.

Time Position Orientation Groundspeed Altitude Reporting Facility
EDT Latitude Longitude Course Direction KTS MPH feet Rate Location/Type
06:18AM 40.2667 -74.8333 180° South 181 208 1,400  Level Philadelphia TRACON
06:18AM 40.2333 -74.8333 180° South 179 206 2,100 1,140 Climbing Philadelphia TRACON
06:21AM 40.2117 -74.6033 97° East 289 333 5,000 840 Climbing New York Center
06:22AM 40.2028 -74.4967 96° East 289 333 5,000  Level New York Center
06:23AM 40.1744 -74.4003 111° Southeast 276 318 5,000  Level New York Center
06:24AM 40.1497 -74.3256 113° Southeast 284 327 5,000  Level New York Center
06:25AM 40.1192 -74.2289 112° Southeast 290 334 5,000 240 Level New York Center
06:26AM 40.0867 -74.1269 113° Southeast 285 328 5,500 900 Climbing New York Center
06:27AM 40.0561 -74.0278 112° Southeast 285 328 6,800 2,280 Climbing New York Center
06:28AM 40.0256 -73.9261 111° Southeast 296 341 10,100 1,320 Climbing New York Center
06:30AM 39.9578 -73.6608 108° East 363 418 10,900 240 Climbing Boston Center
06:31AM 40.0028 -73.5397 64° Northeast 354 407 10,900  Level Boston Center
06:32AM 40.0703 -73.4486 46° Northeast 337 388 10,900  Level Boston Center
06:33AM 40.1397 -73.3519 47° Northeast 342 394 10,900  Level Boston Center
06:34AM 40.2072 -73.2606 46° Northeast 348 400 10,900  Level Boston Center
06:35AM 40.2892 -73.1500 46° Northeast 353 406 10,900  Level Boston Center
06:36AM 40.3564 -73.0528 48° Northeast 348 400 10,900 -180 Level Boston Center
06:37AM 40.4236 -72.9581 47° Northeast 348 400 10,600 -720 Descending Boston Center
06:39AM 40.5500 -72.8333 37° Northeast 276 318 8,900 -960 Descending New York TRACON
06:41AM 40.6064 -72.6833 North  Level FlightAware Approximate
06:42AM 40.7500 -72.9333 North 255 293 6,000  Level New York TRACON
06:44AM 40.8833 -73.0000 339° North 260 299 6,000 -240 Level New York TRACON
06:46AM 40.9236 -73.1535 289° West  Level Estimated
06:47AM 41.0500 -73.1500 289° West 244 281 4,900  Level New York TRACON
06:48AM 41.0833 -73.2333 298° West 260 299 4,000 -480 Descending New York TRACON
06:49AM 41.1167 -73.3167 298° West 261 300 4,000 -300 Level New York TRACON
06:50AM 41.1500 -73.4000 298° West 259 298 3,500 -540 Descending New York TRACON
06:51AM 41.1833 -73.4667 304° West 228 262 3,000 -300 Descending New York TRACON
06:52AM 41.2000 -73.5333 288° West 207 238 2,900 -480 Descending New York TRACON
06:53AM 41.2333 -73.6000 304° West 205 236 2,100 -480 Descending New York TRACON
06:54AM 41.2333 -73.6667 270° West 168 193 2,000 -60 Descending New York TRACON
06:55AM 41.2167 -73.7167 246° West 166 191 2,000  Level New York TRACON
06:56AM 41.2167 -73.7833 270° West 168 193 2,000  Level New York TRACON
06:57AM 41.1833 -73.8000 201° Southwest 170 196 2,000 -60 Level New York TRACON
06:58AM 41.1333 -73.7667 153° Southeast 158 182 1,900 -360 Descending New York TRACON
06:59AM 41.1167 -73.7333 124° Southeast 123 142 1,300 -660 Descending New York TRACON
07:00AM 41.0833 -73.7167 159° South 121 139 700 -720 Descending New York TRACON
07:02AM 41.0667 -73.7000 147° Southeast  Level FlightAware Approximate